Pagina principale
METAR-TAF:

METAR-TAF

Aeroporti :

Capo Bellavista

Tortolì, Italia

latitudine: 39-56N, longitudine: 009-43E, altezza: 138 m

Osservazione

Il bollettino è stato emesso 24 minuti fa, alle 09:55 UTC
Vento calmo
Temperature 20°C
Umidità 88%
Pressione 1013 hPa
Visibilità 10 km o più
Nubi sparse ad un'altezza di 2000 ft
Nubi sparse ad un'altezza di 3000 ft

METAR: LIEB 170955Z 00000KT 9999 SCT020 SCT030 20/18 Q1013 RMK BKN QUK 2 QUL 0 VIS MAR 20 KM MON W CIME INC NC VIS MIN 9999

Ora: 12:19 (10:19 UTC)


TAF: mancante

Osservazioni e previsioni meteorologiche di più di 4000 aeroporti (messaggi METAR e TAF).

Le stazioni disponibili sono rappresentate dai dischi gialli e rossi sulla carta.

Puntare il mouse per vedere il nome della stazione.

Clicca sopra per visualizzare le osservazioni e previsioni meteorologiche.

Per cambiare la mappa : fare clic sui pulsanti verdi con una croce nera per ingrandire, il pulsante verde con un trattino per diminuire, o sulla freccia verde per le mappe adiacenti.


METAR-TAF: